createdAt,value
2022-08-03T00:01:42.696Z,3.33
2022-08-03T00:04:11.668Z,5.10
2022-08-03T00:06:39.279Z,4.77
2022-08-03T00:09:08.518Z,4.27
2022-08-03T00:11:36.696Z,4.73
2022-08-03T00:14:05.100Z,3.70
2022-08-03T00:16:32.548Z,3.73
2022-08-03T00:19:00.674Z,3.67
2022-08-03T00:21:28.705Z,4.63
2022-08-03T00:23:56.242Z,4.20
2022-08-03T00:26:25.044Z,5.53
2022-08-03T00:28:52.404Z,4.07
2022-08-03T00:31:33.930Z,3.90
2022-08-03T00:34:07.223Z,3.90
2022-08-03T00:36:34.539Z,5.23
2022-08-03T00:39:01.946Z,3.20
2022-08-03T00:41:30.738Z,4.10
2022-08-03T00:43:58.131Z,3.03
2022-08-03T00:46:25.427Z,3.50
2022-08-03T00:48:53.417Z,3.20
2022-08-03T00:51:22.288Z,3.40
2022-08-03T00:53:51.005Z,3.10
2022-08-03T00:56:18.933Z,3.20
2022-08-03T00:58:47.930Z,3.60
2022-08-03T01:01:15.727Z,3.43
2022-08-03T01:03:43.500Z,3.80
2022-08-03T01:06:19.341Z,3.83
2022-08-03T01:08:54.887Z,3.73
2022-08-03T01:11:34.744Z,7.53
2022-08-03T01:14:19.053Z,3.03
2022-08-03T01:16:57.563Z,3.50
2022-08-03T01:19:49.586Z,4.10
2022-08-03T01:22:52.203Z,4.23
2022-08-03T01:25:40.291Z,3.83
2022-08-03T01:28:39.060Z,3.50
2022-08-03T01:31:11.735Z,3.87
2022-08-03T01:33:47.075Z,3.70
2022-08-03T01:36:19.564Z,4.37
2022-08-03T01:38:54.091Z,3.57
2022-08-03T01:41:29.403Z,3.50
2022-08-03T01:44:29.641Z,5.77
2022-08-03T01:46:55.613Z,3.80
2022-08-03T01:49:25.689Z,4.00
2022-08-03T01:52:02.852Z,4.73
2022-08-03T01:54:36.243Z,4.83
2022-08-03T01:57:04.792Z,4.90
2022-08-03T01:59:36.329Z,3.83
2022-08-03T02:02:19.515Z,4.50
2022-08-03T02:04:58.233Z,3.80
2022-08-03T02:07:28.027Z,4.20
2022-08-03T02:09:58.473Z,4.37
2022-08-03T02:12:31.357Z,6.40
2022-08-03T02:15:02.020Z,12.57
2022-08-03T02:17:39.278Z,3.87
2022-08-03T02:20:12.404Z,4.73
2022-08-03T02:22:42.157Z,3.90
2022-08-03T02:25:12.711Z,4.03
2022-08-03T02:27:48.927Z,4.00
2022-08-03T02:30:16.862Z,4.73
2022-08-03T02:32:54.654Z,5.70
2022-08-03T02:35:25.939Z,4.80
2022-08-03T02:37:59.798Z,6.63
2022-08-03T02:40:30.834Z,5.33
2022-08-03T02:43:03.832Z,4.83
2022-08-03T02:45:36.579Z,4.97
2022-08-03T02:48:07.508Z,5.93
2022-08-03T02:50:36.930Z,5.07
2022-08-03T02:53:06.336Z,4.10
2022-08-03T02:55:36.233Z,4.70
2022-08-03T02:58:13.533Z,5.00
2022-08-03T03:00:44.109Z,4.90
2022-08-03T03:03:14.063Z,4.90
2022-08-03T03:05:54.804Z,4.67
2022-08-03T03:08:28.637Z,4.63
2022-08-03T03:10:59.658Z,6.27
2022-08-03T03:13:28.935Z,4.40
2022-08-03T03:16:03.869Z,4.90
2022-08-03T03:18:34.992Z,6.67
2022-08-03T03:21:04.558Z,6.37
2022-08-03T03:23:35.331Z,4.63
2022-08-03T03:26:03.793Z,4.60
2022-08-03T03:28:32.404Z,4.90
2022-08-03T03:31:00.976Z,7.93
2022-08-03T03:33:28.789Z,5.20
2022-08-03T03:35:58.898Z,4.80
2022-08-03T03:38:26.833Z,5.30
2022-08-03T03:40:55.022Z,5.37
2022-08-03T03:43:24.940Z,6.23
2022-08-03T03:45:53.765Z,5.30
2022-08-03T03:48:21.560Z,5.63
2022-08-03T03:50:50.694Z,5.77
2022-08-03T03:53:19.893Z,5.37
2022-08-03T03:55:59.111Z,4.10
2022-08-03T03:58:32.192Z,4.53
2022-08-03T04:01:00.398Z,5.13
2022-08-03T04:03:28.079Z,5.60
2022-08-03T04:06:14.137Z,5.23
2022-08-03T04:09:01.198Z,5.27
2022-08-03T04:11:38.377Z,5.30
2022-08-03T04:14:11.042Z,5.60
2022-08-03T04:16:45.102Z,5.00
2022-08-03T04:19:23.162Z,5.50
2022-08-03T04:21:57.675Z,6.60
2022-08-03T04:24:39.139Z,9.63
2022-08-03T04:27:11.511Z,5.37
2022-08-03T04:29:48.514Z,8.00
2022-08-03T04:32:18.192Z,5.07
2022-08-03T04:34:46.517Z,5.80
2022-08-03T04:37:26.457Z,9.50
2022-08-03T04:40:01.843Z,5.57
2022-08-03T04:42:33.338Z,6.70
2022-08-03T04:45:02.755Z,6.27
2022-08-03T04:47:33.859Z,5.57
2022-08-03T04:50:02.850Z,6.33
2022-08-03T04:52:31.401Z,6.13
2022-08-03T04:55:00.105Z,4.93
2022-08-03T04:57:27.489Z,6.87
2022-08-03T05:00:02.012Z,5.47
2022-08-03T05:02:31.270Z,5.40
2022-08-03T05:04:59.474Z,6.10
2022-08-03T05:07:35.643Z,11.50
2022-08-03T05:10:15.194Z,6.37
2022-08-03T05:12:45.873Z,6.37
2022-08-03T05:15:13.879Z,6.23
2022-08-03T05:17:41.376Z,7.57
2022-08-03T05:20:11.030Z,6.20
2022-08-03T05:22:38.517Z,5.67
2022-08-03T05:25:08.199Z,9.17
2022-08-03T05:27:36.146Z,7.57
2022-08-03T05:30:31.468Z,5.70
2022-08-03T05:32:51.798Z,7.13
2022-08-03T05:35:56.194Z,6.10
2022-08-03T05:38:06.946Z,5.17
2022-08-03T05:40:37.990Z,5.83
2022-08-03T05:43:06.934Z,6.00
2022-08-03T05:45:34.355Z,5.20
2022-08-03T05:48:01.672Z,7.47
2022-08-03T05:50:29.035Z,8.60
2022-08-03T05:52:57.924Z,5.50
2022-08-03T05:55:25.842Z,6.03
2022-08-03T05:57:55.182Z,5.20
2022-08-03T06:00:24.268Z,5.13
2022-08-03T06:02:53.145Z,4.70
2022-08-03T06:05:20.729Z,5.83
2022-08-03T06:07:48.117Z,4.90
2022-08-03T06:10:35.942Z,7.00
2022-08-03T06:13:04.489Z,5.30
2022-08-03T06:15:33.415Z,5.50
2022-08-03T06:18:02.221Z,4.90
2022-08-03T06:20:30.290Z,4.40
2022-08-03T06:23:01.065Z,4.80
2022-08-03T06:25:29.085Z,4.70
2022-08-03T06:27:56.922Z,4.90
2022-08-03T06:30:26.180Z,4.57
2022-08-03T06:32:53.596Z,4.40
2022-08-03T06:35:21.148Z,3.97
2022-08-03T06:37:50.967Z,4.70
2022-08-03T06:40:24.488Z,3.93
2022-08-03T06:42:52.017Z,4.47
2022-08-03T06:45:19.552Z,13.67
2022-08-03T06:47:59.490Z,4.83
2022-08-03T06:50:26.987Z,4.43
2022-08-03T06:52:54.390Z,5.87
2022-08-03T06:55:21.958Z,5.13
2022-08-03T06:57:49.482Z,4.77
2022-08-03T07:00:17.498Z,5.27
2022-08-03T07:02:45.040Z,5.23
2022-08-03T07:05:14.485Z,4.10
2022-08-03T07:07:42.187Z,4.40
2022-08-03T07:10:13.976Z,3.73
2022-08-03T07:12:52.715Z,5.17
2022-08-03T07:15:54.433Z,2.83
2022-08-03T07:18:11.624Z,5.80
2022-08-03T07:20:40.938Z,5.47
2022-08-03T07:23:25.886Z,3.87
2022-08-03T07:25:53.357Z,3.40
2022-08-03T07:28:21.057Z,7.27
2022-08-03T07:30:48.535Z,3.97
2022-08-03T07:33:15.895Z,3.70
2022-08-03T07:35:44.631Z,6.07
2022-08-03T07:38:11.975Z,4.33
2022-08-03T07:40:44.429Z,5.73
2022-08-03T07:43:13.381Z,5.10
2022-08-03T07:45:40.766Z,2.70
2022-08-03T07:48:12.095Z,4.87
2022-08-03T07:50:40.663Z,3.87
2022-08-03T07:53:09.429Z,5.30
2022-08-03T07:55:36.882Z,3.83
2022-08-03T07:58:06.904Z,2.77
2022-08-03T08:00:34.808Z,6.20
2022-08-03T08:03:02.706Z,4.60
2022-08-03T08:05:31.894Z,6.33
2022-08-03T08:07:59.630Z,3.97
2022-08-03T08:10:29.470Z,4.80
2022-08-03T08:12:57.667Z,3.53
2022-08-03T08:15:25.726Z,2.80
2022-08-03T08:17:56.434Z,6.17
2022-08-03T08:20:31.605Z,4.63
2022-08-03T08:23:02.148Z,3.17
2022-08-03T08:25:33.071Z,2.73
2022-08-03T08:28:29.061Z,6.07
2022-08-03T08:30:51.968Z,4.10
2022-08-03T08:33:22.716Z,5.10
2022-08-03T08:35:53.501Z,4.90
2022-08-03T08:38:21.868Z,5.63
2022-08-03T08:40:51.230Z,5.55
2022-08-03T08:43:18.834Z,5.18
2022-08-03T08:45:49.029Z,3.25
2022-08-03T08:48:23.394Z,3.63
2022-08-03T08:50:54.496Z,5.53
2022-08-03T08:53:27.341Z,5.78
2022-08-03T08:56:02.237Z,4.88
2022-08-03T08:58:34.955Z,4.10
2022-08-03T09:01:02.525Z,5.35
2022-08-03T09:03:31.075Z,3.65
2022-08-03T09:06:00.989Z,2.67
2022-08-03T09:08:30.443Z,4.22
2022-08-03T09:10:59.628Z,3.17
2022-08-03T09:13:27.455Z,4.40
2022-08-03T09:16:13.722Z,3.72
2022-08-03T09:18:43.043Z,3.28
2022-08-03T09:21:35.723Z,3.08
2022-08-03T09:24:10.300Z,4.30
2022-08-03T09:26:52.155Z,4.05
2022-08-03T09:29:22.868Z,4.78
2022-08-03T09:32:00.851Z,7.22
2022-08-03T09:34:28.846Z,5.40
2022-08-03T09:37:02.354Z,5.22
2022-08-03T09:39:41.015Z,3.60
2022-08-03T09:42:14.710Z,4.63
2022-08-03T09:44:44.533Z,5.65
2022-08-03T09:47:16.862Z,4.93
2022-08-03T09:50:01.914Z,4.25
2022-08-03T09:52:50.180Z,4.93
2022-08-03T09:56:32.737Z,3.53
2022-08-03T09:58:10.430Z,3.28
2022-08-03T10:00:56.388Z,2.63
2022-08-03T10:03:25.917Z,4.38
2022-08-03T10:05:59.062Z,7.15
2022-08-03T10:08:27.430Z,4.03
2022-08-03T10:10:55.130Z,4.43
2022-08-03T10:13:24.384Z,2.65
2022-08-03T10:16:22.646Z,6.55
2022-08-03T10:18:39.313Z,6.13
2022-08-03T10:21:13.697Z,5.22
2022-08-03T10:23:42.690Z,3.35
2022-08-03T10:26:16.539Z,3.13
2022-08-03T10:28:53.181Z,4.30
2022-08-03T10:31:24.236Z,3.20
2022-08-03T10:33:59.122Z,3.83
2022-08-03T10:36:31.837Z,7.40
2022-08-03T10:39:02.846Z,4.55
2022-08-03T10:41:46.570Z,3.13
2022-08-03T10:44:21.284Z,3.80
2022-08-03T10:46:52.828Z,3.53
2022-08-03T10:49:33.917Z,5.88
2022-08-03T10:52:13.831Z,5.22
2022-08-03T10:55:11.675Z,4.25
2022-08-03T10:57:58.557Z,3.67
2022-08-03T11:00:30.500Z,3.65
2022-08-03T11:03:14.038Z,5.65
2022-08-03T11:05:43.450Z,3.17
2022-08-03T11:08:32.560Z,5.75
2022-08-03T11:11:28.837Z,2.67
2022-08-03T11:14:05.247Z,2.72
2022-08-03T11:16:41.634Z,5.45
2022-08-03T11:19:12.514Z,4.07
2022-08-03T11:21:58.290Z,4.55
2022-08-03T11:24:57.826Z,4.80
2022-08-03T11:27:28.508Z,4.05
2022-08-03T11:30:02.194Z,5.22
2022-08-03T11:32:57.094Z,5.13
2022-08-03T11:35:30.250Z,5.80
2022-08-03T11:38:12.678Z,5.35
2022-08-03T11:40:46.282Z,5.90
2022-08-03T11:43:45.363Z,3.72
2022-08-03T11:46:29.531Z,3.55
2022-08-03T11:49:10.922Z,6.72
2022-08-03T11:51:40.102Z,4.95
2022-08-03T11:54:08.244Z,6.47
2022-08-03T11:56:46.747Z,7.15
2022-08-03T11:59:18.262Z,4.47
2022-08-03T12:01:48.439Z,2.53
2022-08-03T12:04:17.452Z,5.03
2022-08-03T12:06:59.420Z,5.63
2022-08-03T12:09:26.949Z,4.90
2022-08-03T12:12:00.182Z,4.53
2022-08-03T12:14:48.519Z,5.32
2022-08-03T12:17:19.759Z,3.97
2022-08-03T12:19:48.886Z,3.40
2022-08-03T12:22:17.055Z,3.05
2022-08-03T12:24:46.818Z,5.72
2022-08-03T12:27:24.318Z,5.22
2022-08-03T12:29:58.412Z,5.15
2022-08-03T12:32:28.600Z,5.47
2022-08-03T12:35:04.483Z,3.95
2022-08-03T12:37:32.525Z,6.97
2022-08-03T12:40:10.400Z,4.22
2022-08-03T12:42:40.773Z,7.07
2022-08-03T12:45:22.979Z,4.18
2022-08-03T12:47:55.911Z,3.90
2022-08-03T12:50:33.652Z,3.95
2022-08-03T12:53:05.195Z,2.50
2022-08-03T12:55:57.867Z,2.70
2022-08-03T12:58:36.401Z,3.83
2022-08-03T13:01:09.746Z,3.15
2022-08-03T13:03:45.648Z,6.20
2022-08-03T13:06:17.388Z,3.15
2022-08-03T13:08:47.850Z,2.90
2022-08-03T13:11:55.418Z,5.45
2022-08-03T13:14:16.657Z,4.30
2022-08-03T13:16:48.249Z,5.10
2022-08-03T13:19:16.129Z,3.88
2022-08-03T13:22:03.721Z,6.47
2022-08-03T13:24:32.994Z,3.80
2022-08-03T13:27:00.890Z,3.88
2022-08-03T13:29:48.274Z,4.25
2022-08-03T13:32:15.932Z,4.80
2022-08-03T13:34:43.615Z,5.93
2022-08-03T13:37:12.895Z,5.47
2022-08-03T13:39:57.915Z,6.07
2022-08-03T13:42:29.643Z,3.33
2022-08-03T13:44:57.135Z,3.22
2022-08-03T13:47:25.010Z,3.30
2022-08-03T13:49:59.525Z,4.40
2022-08-03T13:52:35.543Z,5.28
2022-08-03T13:55:05.201Z,3.45
2022-08-03T13:58:02.669Z,7.50
2022-08-03T14:00:26.944Z,7.85
2022-08-03T14:03:05.094Z,3.80
2022-08-03T14:05:33.872Z,7.25
2022-08-03T14:08:05.355Z,6.70
2022-08-03T14:10:35.398Z,3.95
2022-08-03T14:13:03.412Z,4.53
2022-08-03T14:15:31.414Z,3.80
2022-08-03T14:17:59.106Z,7.03
2022-08-03T14:20:37.828Z,4.50
2022-08-03T14:23:16.158Z,6.78
2022-08-03T14:25:50.406Z,6.65
2022-08-03T14:28:22.948Z,6.30
2022-08-03T14:30:51.166Z,8.48
2022-08-03T14:33:19.226Z,3.45
2022-08-03T14:35:46.851Z,5.43
2022-08-03T14:38:16.095Z,4.82
2022-08-03T14:40:43.689Z,5.65
2022-08-03T14:43:11.146Z,6.93
2022-08-03T14:45:39.225Z,5.60
2022-08-03T14:50:29.742Z,6.88
2022-08-03T14:50:55.430Z,6.97
2022-08-03T14:53:24.522Z,4.80
2022-08-03T14:55:53.432Z,6.43
2022-08-03T14:58:22.315Z,7.22
2022-08-03T15:00:51.521Z,6.07
2022-08-03T15:03:25.359Z,2.83
2022-08-03T15:05:54.720Z,5.03
2022-08-03T15:08:26.165Z,4.72
2022-08-03T15:10:55.088Z,8.82
2022-08-03T15:13:22.902Z,9.30
2022-08-03T15:15:51.707Z,6.57
2022-08-03T15:18:20.182Z,4.63
2022-08-03T15:20:49.556Z,4.82
2022-08-03T15:23:18.447Z,6.35
2022-08-03T15:26:03.829Z,4.00
2022-08-03T15:28:35.740Z,5.43
2022-08-03T15:31:05.899Z,7.20
2022-08-03T15:33:33.341Z,6.15
2022-08-03T15:36:03.644Z,5.03
2022-08-03T15:38:30.999Z,5.40
2022-08-03T15:40:59.869Z,6.05
2022-08-03T15:43:27.264Z,2.92
2022-08-03T15:46:19.527Z,8.00
2022-08-03T15:48:42.340Z,5.43
2022-08-03T15:51:10.490Z,4.22
2022-08-03T15:53:38.754Z,6.45
2022-08-03T15:56:13.272Z,3.58
2022-08-03T15:59:03.539Z,4.18
2022-08-03T16:01:31.675Z,5.50
2022-08-03T16:03:59.104Z,4.80
2022-08-03T16:06:29.894Z,8.02
2022-08-03T16:09:24.153Z,5.57
2022-08-03T16:11:55.751Z,4.70
2022-08-03T16:14:32.561Z,7.35
2022-08-03T16:17:04.453Z,5.88
2022-08-03T16:19:31.901Z,5.95
2022-08-03T16:21:59.386Z,7.97
2022-08-03T16:24:28.486Z,6.97
2022-08-03T16:26:57.621Z,8.35
2022-08-03T16:29:28.355Z,3.85
2022-08-03T16:31:55.739Z,6.18
2022-08-03T16:34:23.305Z,5.30
2022-08-03T16:36:51.275Z,4.47
2022-08-03T16:39:18.696Z,5.28
2022-08-03T16:41:53.923Z,4.78
2022-08-03T16:44:31.342Z,8.98
2022-08-03T16:46:59.845Z,6.03
2022-08-03T16:49:54.593Z,9.02
2022-08-03T16:52:16.747Z,5.75
2022-08-03T16:54:52.751Z,3.92
2022-08-03T16:57:56.307Z,4.60
2022-08-03T17:00:32.880Z,4.82
2022-08-03T17:03:18.684Z,3.72
2022-08-03T17:05:52.383Z,3.50
2022-08-03T17:08:26.440Z,5.07
2022-08-03T17:10:56.305Z,4.70
2022-08-03T17:13:39.258Z,7.82
2022-08-03T17:16:11.953Z,6.28
2022-08-03T17:18:49.269Z,5.20
2022-08-03T17:21:25.616Z,6.30
2022-08-03T17:24:12.245Z,3.92
2022-08-03T17:26:43.600Z,6.22
2022-08-03T17:29:15.263Z,4.28
2022-08-03T17:31:48.679Z,7.20
2022-08-03T17:34:18.930Z,6.53
2022-08-03T17:37:03.885Z,5.10
2022-08-03T17:39:57.067Z,10.05
2022-08-03T17:42:30.750Z,4.57
2022-08-03T17:45:02.247Z,7.10
2022-08-03T17:47:42.248Z,5.38
2022-08-03T17:50:24.518Z,4.32
2022-08-03T17:53:06.858Z,4.32
2022-08-03T17:55:55.496Z,5.35
2022-08-03T17:58:52.827Z,7.68
2022-08-03T18:02:00.018Z,5.70
2022-08-03T18:04:42.508Z,3.88
2022-08-03T18:07:15.153Z,5.93
2022-08-03T18:10:04.142Z,4.50
2022-08-03T18:12:47.397Z,7.15
2022-08-03T18:15:28.691Z,3.60
2022-08-03T18:18:03.463Z,9.70
2022-08-03T18:20:42.063Z,7.07
2022-08-03T18:23:36.387Z,4.72
2022-08-03T18:26:02.520Z,3.45
2022-08-03T18:28:34.722Z,2.95
2022-08-03T18:31:05.614Z,3.85
2022-08-03T18:34:16.746Z,7.00
2022-08-03T18:36:30.082Z,6.55
2022-08-03T18:39:00.014Z,5.18
2022-08-03T18:41:33.419Z,3.08
2022-08-03T18:44:08.283Z,6.55
2022-08-03T18:47:16.233Z,6.10
2022-08-03T18:49:58.097Z,5.22
2022-08-03T18:52:37.491Z,8.18
2022-08-03T18:55:20.787Z,6.68
2022-08-03T18:58:01.757Z,7.85
2022-08-03T19:00:54.063Z,6.47
2022-08-03T19:03:24.898Z,7.33
2022-08-03T19:06:19.396Z,6.90
2022-08-03T19:08:55.861Z,6.17
2022-08-03T19:12:14.475Z,6.37
2022-08-03T19:14:28.411Z,6.43
2022-08-03T19:17:07.303Z,11.40
2022-08-03T19:19:43.970Z,9.33
2022-08-03T19:22:16.273Z,9.80
2022-08-03T19:24:47.094Z,11.23
2022-08-03T19:27:15.978Z,8.63
2022-08-03T19:29:58.719Z,10.63
2022-08-03T19:32:29.488Z,12.23
2022-08-03T19:34:59.937Z,8.30
2022-08-03T19:37:38.154Z,11.40
2022-08-03T19:40:12.412Z,12.50
2022-08-03T19:42:45.748Z,8.43
2022-08-03T19:46:04.797Z,8.73
2022-08-03T19:48:17.672Z,13.00
2022-08-03T19:50:54.238Z,8.33
2022-08-03T19:53:25.055Z,9.20
2022-08-03T19:56:07.118Z,8.50
2022-08-03T19:58:35.597Z,11.40
2022-08-03T20:01:21.136Z,12.17
2022-08-03T20:03:50.706Z,10.60
2022-08-03T20:06:22.256Z,11.43
2022-08-03T20:11:45.113Z,13.93
2022-08-03T20:14:20.688Z,11.17
2022-08-03T20:16:54.351Z,13.80
2022-08-03T20:19:22.507Z,13.67
2022-08-03T20:21:53.491Z,12.53
2022-08-03T20:24:28.117Z,14.07
2022-08-03T20:27:01.356Z,14.63
2022-08-03T20:30:05.107Z,13.03
2022-08-03T20:32:24.790Z,14.17
2022-08-03T20:34:53.282Z,13.40
2022-08-03T20:37:20.868Z,13.53
2022-08-03T20:39:49.779Z,11.80
2022-08-03T20:42:21.269Z,10.63
2022-08-03T20:45:05.243Z,13.33
2022-08-03T20:47:35.943Z,10.97
2022-08-03T20:50:07.525Z,16.30
2022-08-03T20:52:49.282Z,16.53
2022-08-03T20:55:18.833Z,10.27
2022-08-03T20:58:07.704Z,13.67
2022-08-03T21:00:35.344Z,13.87
2022-08-03T21:03:02.803Z,18.73
2022-08-03T21:05:51.473Z,13.83
2022-08-03T21:08:26.078Z,18.60
2022-08-03T21:10:57.667Z,12.43
2022-08-03T21:13:03.563Z,7.53
2022-08-03T21:13:43.251Z,12.23
2022-08-03T21:16:15.071Z,17.50
2022-08-03T21:18:48.955Z,16.17
2022-08-03T21:21:20.475Z,14.60
2022-08-03T21:23:53.274Z,9.57
2022-08-03T21:26:25.365Z,11.47
2022-08-03T21:28:56.500Z,13.20
2022-08-03T21:31:26.742Z,12.33
2022-08-03T21:33:56.555Z,9.83
2022-08-03T21:36:28.218Z,12.57
2022-08-03T21:38:57.804Z,12.63
2022-08-03T21:41:27.075Z,11.50
2022-08-03T21:43:56.745Z,12.23
2022-08-03T21:46:27.010Z,16.30
2022-08-03T21:50:05.406Z,13.87
2022-08-03T21:51:52.205Z,12.40
2022-08-03T21:54:21.292Z,11.70
2022-08-03T21:56:54.894Z,11.87
2022-08-03T21:59:24.980Z,13.00
2022-08-03T22:01:55.499Z,13.07
2022-08-03T22:04:55.047Z,13.40
2022-08-03T22:07:16.610Z,10.40
2022-08-03T22:09:50.140Z,11.60
2022-08-03T22:12:23.696Z,12.30
2022-08-03T22:15:00.443Z,11.97
2022-08-03T22:17:54.820Z,12.97
2022-08-03T22:20:20.590Z,11.30
2022-08-03T22:22:55.193Z,12.97
2022-08-03T22:25:30.554Z,13.57
2022-08-03T22:28:00.352Z,13.67
2022-08-03T22:30:29.786Z,12.63
2022-08-03T22:32:59.126Z,13.90
2022-08-03T22:35:28.135Z,14.23
2022-08-03T22:37:58.892Z,13.70
2022-08-03T22:40:27.824Z,12.23
2022-08-03T22:42:56.690Z,17.10
2022-08-03T22:45:45.802Z,14.17
2022-08-03T22:48:17.414Z,13.43
2022-08-03T22:50:46.679Z,14.47
2022-08-03T22:53:19.434Z,12.70
2022-08-03T22:55:48.710Z,16.63
2022-08-03T22:58:16.493Z,17.13
2022-08-03T23:00:53.793Z,13.53
2022-08-03T23:04:00.129Z,21.20
2022-08-03T23:06:19.643Z,15.17
2022-08-03T23:08:49.764Z,12.87
2022-08-03T23:11:21.630Z,18.97
2022-08-03T23:13:55.405Z,15.47
2022-08-03T23:16:28.754Z,13.17
2022-08-03T23:18:59.622Z,20.87
2022-08-03T23:21:59.886Z,16.73
2022-08-03T23:24:24.572Z,15.60
2022-08-03T23:26:58.905Z,14.83
2022-08-03T23:29:29.283Z,19.07
2022-08-03T23:31:58.518Z,15.10
2022-08-03T23:34:47.068Z,16.10
2022-08-03T23:37:15.557Z,12.80
2022-08-03T23:39:47.135Z,19.83
2022-08-03T23:42:19.598Z,16.50
2022-08-03T23:44:52.937Z,16.77
2022-08-03T23:47:20.540Z,18.20
2022-08-03T23:49:50.268Z,15.27
2022-08-03T23:52:29.859Z,16.30
2022-08-03T23:55:16.300Z,17.00
2022-08-03T23:58:01.662Z,13.37
